Time;durP1;ratioP1;P1;durP2;ratioP2;P2;SDS_P1;SDS_P2;PMS_P1;PMS_P2;Temp;Humidity;BMP_temperature;BMP_pressure;BME280_temperature;BME280_humidity;BME280_pressure;Samples;Min_cycle;Max_cycle;Signal;HPM_P1;HPM_P2
2022/05/07 00:01:09;;;;;;;6.05;3.30;;;;;;;11.26;37.92;100186.61;1773049;79;21242;-42
2022/05/07 00:03:36;;;;;;;6.83;3.12;;;;;;;11.26;37.84;100192.03;1773002;81;20958;-43
2022/05/07 00:06:03;;;;;;;5.60;3.30;;;;;;;11.26;37.84;100185.25;1772924;81;21010;-43
2022/05/07 00:08:31;;;;;;;9.53;3.05;;;;;;;11.26;37.95;100186.61;1772963;79;21021;-43
2022/05/07 00:10:59;;;;;;;6.70;3.02;;;;;;;11.26;38.05;100184.69;1772991;79;21033;-43
2022/05/07 00:13:26;;;;;;;5.20;3.08;;;;;;;11.27;38.10;100190.34;1773066;79;23154;-43
2022/05/07 00:18:38;;;;;;;6.20;3.25;;;;;;;11.28;38.26;100187.83;1768180;79;21006;-42
2022/05/07 00:21:05;;;;;;;6.90;2.90;;;;;;;11.25;38.11;100179.59;1773026;79;20953;-42
2022/05/07 00:23:32;;;;;;;7.12;3.40;;;;;;;11.24;38.33;100180.72;1775213;80;21025;-42
2022/05/07 00:26:00;;;;;;;11.05;3.15;;;;;;;11.24;38.25;100183.43;1789657;79;21821;-42
2022/05/07 00:28:26;;;;;;;4.05;2.83;;;;;;;11.24;38.40;100183.43;1789671;80;21000;-41
2022/05/07 00:30:54;;;;;;;6.20;3.22;;;;;;;11.21;38.50;100179.50;1789642;80;21013;-42
2022/05/07 00:33:20;;;;;;;6.15;3.05;;;;;;;11.19;38.76;100178.24;1789557;79;21016;-43
2022/05/07 00:35:47;;;;;;;5.60;3.20;;;;;;;11.17;39.04;100181.31;1789691;79;21021;-43
2022/05/07 00:38:14;;;;;;;9.35;3.37;;;;;;;11.16;39.12;100177.58;1789802;80;21230;-43
2022/05/07 00:40:41;;;;;;;7.20;3.20;;;;;;;11.14;38.74;100173.84;1789860;80;20955;-43
2022/05/07 00:43:08;;;;;;;9.88;3.58;;;;;;;11.13;38.78;100176.92;1789714;79;20929;-43
2022/05/07 00:45:35;;;;;;;7.08;3.70;;;;;;;11.12;38.98;100167.98;1782736;79;20968;-43
2022/05/07 00:48:03;;;;;;;4.70;3.05;;;;;;;11.14;39.01;100171.70;1758348;81;21032;-43
2022/05/07 00:53:16;;;;;;;10.82;3.80;;;;;;;11.14;39.12;100171.12;1758181;81;21032;-43
2022/05/07 00:55:43;;;;;;;5.62;3.15;;;;;;;11.11;39.51;100169.68;1758328;81;21027;-43
2022/05/07 00:58:09;;;;;;;5.67;3.37;;;;;;;11.08;39.69;100174.45;1758338;81;20968;-43
2022/05/07 01:00:37;;;;;;;8.05;3.35;;;;;;;11.05;40.15;100165.05;1758505;81;21064;-43
2022/05/07 01:03:04;;;;;;;8.40;3.60;;;;;;;11.02;40.59;100169.02;1758437;81;21559;-43
2022/05/07 01:05:32;;;;;;;8.03;3.67;;;;;;;10.99;40.54;100165.65;1758200;81;20969;-43
2022/05/07 01:07:59;;;;;;;5.97;3.27;;;;;;;10.97;40.67;100166.55;1758429;81;20964;-43
2022/05/07 01:10:27;;;;;;;10.00;3.47;;;;;;;10.93;41.00;100167.01;1758533;81;20925;-43
2022/05/07 01:12:56;;;;;;;7.97;3.25;;;;;;;10.89;41.24;100166.31;1758674;81;21052;-43
2022/05/07 01:15:25;;;;;;;8.00;3.55;;;;;;;10.85;41.32;100165.42;1729443;81;21336;-43
2022/05/07 01:17:52;;;;;;;7.92;3.30;;;;;;;10.83;41.62;100162.84;1758539;81;21594;-43
2022/05/07 01:20:18;;;;;;;5.65;3.45;;;;;;;10.78;41.59;100163.87;1758692;81;21526;-43
2022/05/07 01:22:46;;;;;;;6.72;3.50;;;;;;;10.75;41.81;100162.37;1758605;81;20926;-43
2022/05/07 01:25:14;;;;;;;7.12;3.10;;;;;;;10.70;42.32;100156.63;1747299;81;21009;-42
2022/05/07 01:27:42;;;;;;;6.33;3.10;;;;;;;10.67;41.61;100161.94;1742792;82;21252;-43
2022/05/07 01:30:11;;;;;;;7.80;3.77;;;;;;;10.63;41.38;100161.05;1742264;82;21554;-43
2022/05/07 01:32:37;;;;;;;6.97;3.83;;;;;;;10.60;41.21;100157.67;1742376;82;20973;-43
2022/05/07 01:35:06;;;;;;;9.00;3.83;;;;;;;10.59;41.14;100161.50;1742403;82;21507;-43
2022/05/07 01:37:33;;;;;;;8.18;3.77;;;;;;;10.58;41.32;100162.63;1742392;82;21073;-43
2022/05/07 01:40:01;;;;;;;5.92;3.80;;;;;;;10.57;41.03;100157.77;1742074;82;23201;-43
2022/05/07 01:42:29;;;;;;;9.10;3.60;;;;;;;10.55;40.89;100155.98;1742237;81;21554;-43
2022/05/07 01:44:56;;;;;;;6.75;3.33;;;;;;;10.54;40.84;100159.02;1742304;82;21379;-43
2022/05/07 01:50:09;;;;;;;6.60;3.90;;;;;;;10.56;40.83;100156.18;1742224;82;21547;-43
2022/05/07 01:52:37;;;;;;;13.48;3.92;;;;;;;10.55;40.74;100160.05;1742410;82;21092;-43
2022/05/07 01:55:04;;;;;;;7.15;3.98;;;;;;;10.54;40.65;100154.39;1742381;81;20985;-43
2022/05/07 01:57:32;;;;;;;7.05;3.87;;;;;;;10.53;40.75;100159.58;1742658;82;21072;-43
2022/05/07 01:59:59;;;;;;;9.70;4.50;;;;;;;10.52;40.84;100157.20;1742256;82;20994;-43
2022/05/07 02:02:26;;;;;;;7.22;4.10;;;;;;;10.50;41.01;100152.70;1742506;82;21638;-43
2022/05/07 02:04:53;;;;;;;7.37;4.08;;;;;;;10.49;40.98;100155.97;1763358;79;21080;-43
2022/05/07 02:07:22;;;;;;;7.37;4.17;;;;;;;10.47;40.98;100151.44;1766801;81;21547;-43
2022/05/07 02:09:49;;;;;;;12.75;4.47;;;;;;;10.43;41.21;100149.98;1766835;81;20965;-43
2022/05/07 02:12:17;;;;;;;7.80;4.58;;;;;;;10.43;41.32;100150.55;1766863;81;21563;-43
2022/05/07 02:14:45;;;;;;;7.30;4.25;;;;;;;10.42;41.33;100150.31;1766872;81;21041;-43
2022/05/07 02:17:13;;;;;;;8.30;4.58;;;;;;;10.40;41.51;100149.88;1766677;81;21228;-43
2022/05/07 02:19:41;;;;;;;7.00;4.12;;;;;;;10.39;41.64;100153.71;1766904;81;21036;-42
2022/05/07 02:22:09;;;;;;;8.15;4.25;;;;;;;10.37;41.44;100153.24;1766640;81;21602;-43
2022/05/07 02:24:37;;;;;;;8.30;4.35;;;;;;;10.34;41.50;100152.58;1771299;80;21601;-42
2022/05/07 02:27:05;;;;;;;8.08;4.28;;;;;;;10.32;41.54;100148.05;1783498;79;21601;-43
2022/05/07 02:29:32;;;;;;;8.93;4.53;;;;;;;10.31;41.70;100149.20;1783339;80;21171;-42
2022/05/07 02:32:05;;;;;;;7.75;4.35;;;;;;;10.27;41.66;100151.77;1783119;80;21040;-43
2022/05/07 02:34:37;;;;;;;10.05;4.70;;;;;;;10.25;41.73;100146.48;1783686;79;20989;-43
2022/05/07 02:37:05;;;;;;;9.48;4.22;;;;;;;10.20;41.81;100145.34;1783227;80;21059;-43
2022/05/07 02:39:33;;;;;;;6.92;3.98;;;;;;;10.17;41.81;100152.77;1778329;80;21040;-43
2022/05/07 02:44:47;;;;;;;9.08;5.00;;;;;;;10.15;41.99;100156.37;1783288;79;21039;-43
2022/05/07 02:47:13;;;;;;;11.43;4.20;;;;;;;10.12;42.04;100152.98;1778230;79;21033;-44
2022/05/07 02:49:42;;;;;;;7.05;4.30;;;;;;;10.10;42.19;100158.73;1783365;79;21027;-42
2022/05/07 02:52:11;;;;;;;6.42;3.92;;;;;;;10.07;42.31;100157.27;1783302;80;21036;-43
2022/05/07 02:54:38;;;;;;;9.95;4.75;;;;;;;10.03;42.37;100153.86;1783799;80;21190;-42
2022/05/07 02:57:05;;;;;;;10.40;4.20;;;;;;;10.01;42.43;100154.77;1783466;79;20999;-43
2022/05/07 02:59:32;;;;;;;5.78;4.25;;;;;;;9.98;42.53;100154.63;1783682;80;20996;-43
2022/05/07 03:01:58;;;;;;;7.55;4.60;;;;;;;9.97;42.66;100157.91;1783555;79;20972;-43
2022/05/07 03:04:26;;;;;;;9.28;4.70;;;;;;;9.97;42.69;100153.84;1783895;80;21044;-42
2022/05/07 03:06:53;;;;;;;7.55;4.37;;;;;;;9.96;42.95;100154.98;1783358;80;21850;-42
2022/05/07 03:09:20;;;;;;;11.28;4.78;;;;;;;9.92;43.02;100152.70;1783344;80;21018;-43
2022/05/07 03:11:46;;;;;;;12.85;4.75;;;;;;;9.90;43.03;100154.97;1783245;80;21062;-43
2022/05/07 03:14:15;;;;;;;9.88;4.28;;;;;;;9.90;43.05;100157.67;1783263;79;20976;-43
2022/05/07 03:16:42;;;;;;;13.25;4.20;;;;;;;9.92;43.01;100162.77;1771920;80;21024;-43
2022/05/07 03:19:08;;;;;;;8.33;4.75;;;;;;;9.90;43.15;100164.45;1758072;81;23101;-43
2022/05/07 03:21:35;;;;;;;7.72;4.25;;;;;;;9.92;43.29;100164.12;1758170;81;21559;-43
2022/05/07 03:24:03;;;;;;;13.30;4.75;;;;;;;9.92;43.19;100160.06;1758406;80;21024;-43
2022/05/07 03:26:30;;;;;;;8.55;4.50;;;;;;;9.93;43.18;100165.13;1789581;79;20890;-43
2022/05/07 03:28:57;;;;;;;9.40;3.92;;;;;;;9.95;43.32;100164.80;1789598;79;21028;-43
2022/05/07 03:31:27;;;;;;;8.55;4.47;;;;;;;9.97;43.41;100168.73;1789677;79;20949;-43
2022/05/07 03:33:54;;;;;;;8.65;4.20;;;;;;;10.01;43.22;100171.03;1789541;79;20930;-43
2022/05/07 03:36:22;;;;;;;10.28;4.25;;;;;;;10.03;43.34;100172.82;1789595;79;21591;-43
2022/05/07 03:38:50;;;;;;;9.83;4.33;;;;;;;10.07;43.51;100166.75;1789510;80;21036;-43
2022/05/07 03:41:21;;;;;;;7.70;4.65;;;;;;;10.10;43.56;100171.48;1789436;80;21475;-43
2022/05/07 03:43:48;;;;;;;6.78;4.50;;;;;;;10.13;43.63;100178.38;1789706;80;21004;-43
2022/05/07 03:46:15;;;;;;;6.80;4.42;;;;;;;10.16;43.67;100170.18;1789825;80;21519;-43
2022/05/07 03:48:47;;;;;;;8.90;4.55;;;;;;;10.20;43.68;100175.15;1789012;79;20952;-43
2022/05/07 03:51:15;;;;;;;9.00;4.58;;;;;;;10.22;43.61;100169.60;1789697;80;21618;-43
2022/05/07 03:53:42;;;;;;;11.78;4.72;;;;;;;10.27;43.59;100172.66;1789836;80;20977;-43
2022/05/07 03:56:10;;;;;;;7.75;4.70;;;;;;;10.33;43.73;100171.31;1770371;79;21129;-43
2022/05/07 03:58:38;;;;;;;9.75;4.72;;;;;;;10.36;43.76;100174.13;1753034;81;20964;-43
2022/05/07 04:01:08;;;;;;;8.45;4.33;;;;;;;10.41;43.74;100179.89;1738959;81;21563;-43
2022/05/07 04:03:36;;;;;;;;;;;;;;;10.48;43.75;100178.78;1760988;81;21049;-43
2022/05/07 04:06:03;;;;;;;6.58;4.17;;;;;;;10.54;43.70;100172.02;1758298;81;20208;-43
2022/05/07 04:08:30;;;;;;;9.38;4.65;;;;;;;10.48;43.74;100172.00;1758428;81;21130;-43
2022/05/07 04:10:58;;;;;;;11.75;4.42;;;;;;;10.56;43.56;100177.08;1758402;81;21052;-43
2022/05/07 04:13:26;;;;;;;7.58;4.17;;;;;;;10.62;43.35;100178.44;1758380;81;21000;-43
2022/05/07 04:15:58;;;;;;;10.32;5.00;;;;;;;10.66;43.29;100177.42;1758330;81;21001;-43
2022/05/07 04:18:26;;;;;;;9.60;4.10;;;;;;;10.74;43.20;100180.59;1758488;81;21005;-43
2022/05/07 04:20:56;;;;;;;9.95;4.70;;;;;;;10.80;43.03;100181.92;1758491;81;21250;-43
2022/05/07 04:23:22;;;;;;;8.55;4.47;;;;;;;10.88;42.90;100176.97;1758391;81;21538;-43
2022/05/07 04:25:49;;;;;;;12.35;4.72;;;;;;;10.99;43.07;100180.57;1758389;81;21031;-43
2022/05/07 04:28:18;;;;;;;10.30;4.65;;;;;;;11.06;42.89;100176.70;1758259;81;21495;-43
2022/05/07 04:30:46;;;;;;;10.88;4.47;;;;;;;11.13;42.61;100180.99;1758501;81;21001;-43
2022/05/07 04:33:16;;;;;;;6.92;4.25;;;;;;;11.18;42.74;100168.55;1758288;81;21218;-43
2022/05/07 04:35:43;;;;;;;8.95;4.35;;;;;;;11.25;42.82;100175.52;1758471;81;21056;-43
2022/05/07 04:38:11;;;;;;;10.08;4.50;;;;;;;11.32;42.65;100175.17;1758462;81;20953;-43
2022/05/07 04:40:38;;;;;;;11.35;4.67;;;;;;;11.41;42.65;100173.67;1758452;81;20978;-43
2022/05/07 04:43:05;;;;;;;14.23;5.05;;;;;;;11.50;42.41;100172.16;1758662;81;21526;-43
2022/05/07 04:45:34;;;;;;;10.25;4.87;;;;;;;11.58;42.14;100171.21;1758726;81;21530;-43
2022/05/07 04:48:04;;;;;;;9.90;4.00;;;;;;;11.67;42.09;100169.92;1758498;81;21583;-43
2022/05/07 04:50:32;;;;;;;8.27;4.87;;;;;;;11.76;42.17;100173.30;1758753;81;21028;-43
2022/05/07 04:53:01;;;;;;;7.70;4.58;;;;;;;11.85;41.88;100168.30;1750139;81;21027;-43
2022/05/07 04:55:28;;;;;;;10.88;5.22;;;;;;;11.94;41.75;100173.00;1758496;81;20990;-43
2022/05/07 04:57:56;;;;;;;9.83;4.95;;;;;;;12.04;41.93;100172.49;1758327;81;21135;-43
2022/05/07 05:00:25;;;;;;;8.33;4.55;;;;;;;12.15;41.38;100169.48;1758173;81;21087;-43
2022/05/07 05:02:56;;;;;;;10.85;4.78;;;;;;;12.23;41.26;100175.31;1757751;81;20941;-43
2022/05/07 05:05:25;;;;;;;8.45;4.80;;;;;;;12.31;40.86;100177.06;1758315;81;21565;-43
2022/05/07 05:07:55;;;;;;;9.40;4.70;;;;;;;12.38;40.75;100177.81;1758054;81;21514;-43
2022/05/07 05:10:24;;;;;;;7.65;4.55;;;;;;;12.45;40.66;100177.41;1758318;81;21094;-43
2022/05/07 05:12:52;;;;;;;11.18;4.85;;;;;;;12.56;40.68;100176.31;1758291;81;21006;-43
2022/05/07 05:15:20;;;;;;;13.00;5.67;;;;;;;12.63;39.53;100179.97;1758365;81;21084;-43
2022/05/07 05:18:00;;;;;;;7.22;4.40;;;;;;;12.71;39.97;100180.15;1773506;80;21029;-43
2022/05/07 05:20:26;;;;;;;11.68;4.80;;;;;;;12.77;39.94;100177.38;1789635;80;21079;-43
2022/05/07 05:23:06;;;;;;;9.48;4.83;;;;;;;12.84;39.97;100178.33;1788892;79;20968;-43
2022/05/07 05:25:43;;;;;;;9.75;5.20;;;;;;;12.95;40.05;100182.65;1783179;79;21020;-43
2022/05/07 05:28:12;;;;;;;12.73;4.83;;;;;;;13.07;39.71;100187.95;1773265;81;21096;-43
2022/05/07 05:30:41;;;;;;;10.30;5.08;;;;;;;13.18;39.51;100186.30;1773157;81;20962;-43
2022/05/07 05:33:09;;;;;;;10.72;5.08;;;;;;;13.28;39.60;100180.29;1772921;79;21017;-43
2022/05/07 05:35:38;;;;;;;10.58;4.75;;;;;;;13.40;39.29;100184.26;1773064;81;21236;-43
2022/05/07 05:38:06;;;;;;;9.13;4.78;;;;;;;13.50;38.85;100176.09;1772886;81;20879;-43
2022/05/07 05:40:33;;;;;;;9.05;4.72;;;;;;;13.62;39.27;100179.22;1773105;81;21112;-43
2022/05/07 05:42:59;;;;;;;10.20;5.05;;;;;;;13.73;38.35;100180.22;1773002;81;21472;-43
2022/05/07 05:45:28;;;;;;;9.05;4.70;;;;;;;13.84;38.41;100177.92;1773048;81;21018;-43
2022/05/07 05:47:56;;;;;;;13.98;5.40;;;;;;;13.95;38.06;100179.45;1773034;81;23126;-43
2022/05/07 05:50:23;;;;;;;8.50;4.47;;;;;;;14.04;38.29;100177.88;1772834;81;20966;-43
2022/05/07 05:52:50;;;;;;;12.53;4.87;;;;;;;14.13;37.87;100181.16;1773017;79;20999;-43
2022/05/07 05:55:16;;;;;;;9.68;4.78;;;;;;;14.25;37.58;100185.05;1767945;79;20949;-43
2022/05/07 05:57:44;;;;;;;7.33;5.20;;;;;;;14.33;37.88;100184.80;1766778;81;21084;-43
2022/05/07 06:00:13;;;;;;;8.28;4.85;;;;;;;14.44;37.75;100186.95;1766938;81;21133;-43
2022/05/07 06:02:43;;;;;;;7.67;5.20;;;;;;;14.55;37.76;100183.83;1767337;81;20969;-43
2022/05/07 06:05:15;;;;;;;9.80;5.33;;;;;;;14.68;37.34;100186.56;1766650;81;21007;-43
2022/05/07 06:07:44;;;;;;;11.93;5.53;;;;;;;14.78;37.23;100181.85;1766855;81;21005;-43
2022/05/07 06:10:10;;;;;;;8.75;5.60;;;;;;;14.90;37.67;100184.38;1766780;81;21016;-43
2022/05/07 06:12:37;;;;;;;8.15;5.20;;;;;;;15.03;36.85;100188.47;1766706;81;21480;-43
2022/05/07 06:15:07;;;;;;;9.85;5.97;;;;;;;15.16;36.63;100193.11;1766601;81;21004;-43
2022/05/07 06:17:34;;;;;;;12.90;5.97;;;;;;;15.28;35.70;100195.63;1766703;81;21131;-43
2022/05/07 06:20:04;;;;;;;11.73;6.10;;;;;;;15.36;35.83;100191.03;1766570;81;21040;-43
2022/05/07 06:22:33;;;;;;;11.43;5.87;;;;;;;15.46;35.86;100193.12;1766644;81;21033;-43
2022/05/07 06:27:53;;;;;;;9.38;6.08;;;;;;;15.72;35.33;100193.09;1765207;81;21550;-43
2022/05/07 06:30:22;;;;;;;11.25;6.10;;;;;;;15.86;35.23;100198.70;1766187;81;20969;-43
2022/05/07 06:32:51;;;;;;;9.58;5.70;;;;;;;15.98;34.97;100197.64;1766904;81;20988;-43
2022/05/07 06:35:18;;;;;;;10.85;5.87;;;;;;;16.08;34.13;100196.39;1766742;81;21045;-43
2022/05/07 06:37:48;;;;;;;9.78;5.65;;;;;;;16.19;34.11;100195.12;1761715;81;22166;-43
2022/05/07 06:40:15;;;;;;;11.63;6.17;;;;;;;16.28;34.35;100196.97;1766696;81;20938;-43
2022/05/07 06:42:45;;;;;;;14.15;6.33;;;;;;;16.35;33.90;100190.20;1766865;81;21072;-43
2022/05/07 06:45:14;;;;;;;9.20;5.00;;;;;;;16.43;34.18;100191.04;1765905;81;20965;-43
2022/05/07 06:47:41;;;;;;;11.35;6.28;;;;;;;16.52;34.38;100189.55;1766792;81;21554;-43
2022/05/07 06:50:09;;;;;;;9.38;5.78;;;;;;;16.65;33.88;100191.46;1742613;81;23168;-43
2022/05/07 06:52:45;;;;;;;10.88;6.67;;;;;;;16.77;33.62;100189.78;1766620;81;21052;-43
2022/05/07 06:55:16;;;;;;;11.93;6.87;;;;;;;16.90;33.06;100187.50;1766563;81;21248;-43
2022/05/07 06:57:44;;;;;;;11.60;5.90;;;;;;;17.02;32.09;100191.89;1766659;81;20996;-43
2022/05/07 07:00:13;;;;;;;10.13;6.65;;;;;;;17.14;32.42;100187.45;1766703;81;21056;-43
2022/05/07 07:02:41;;;;;;;13.80;6.35;;;;;;;17.25;32.11;100185.55;1766879;81;21111;-43
2022/05/07 07:05:10;;;;;;;14.00;6.10;;;;;;;17.36;32.08;100189.14;1766532;81;22143;-43
2022/05/07 07:07:37;;;;;;;8.17;5.90;;;;;;;17.49;32.58;100186.25;1766693;81;20984;-43
2022/05/07 07:10:06;;;;;;;12.37;6.80;;;;;;;17.66;31.29;100188.33;1766622;81;21243;-44
2022/05/07 07:12:40;;;;;;;10.88;6.50;;;;;;;17.79;31.72;100178.56;1766892;81;20994;-44
2022/05/07 07:15:08;;;;;;;11.53;6.65;;;;;;;17.97;30.83;100184.08;1766954;81;21216;-44
2022/05/07 07:17:41;;;;;;;12.85;6.78;;;;;;;18.13;30.81;100180.98;1766800;81;21053;-44
2022/05/07 07:20:10;;;;;;;14.15;6.72;;;;;;;18.30;30.83;100178.06;1766574;81;21032;-44
2022/05/07 07:22:37;;;;;;;12.53;6.72;;;;;;;18.47;28.67;100186.88;1766758;81;21512;-44
2022/05/07 07:25:07;;;;;;;10.65;7.08;;;;;;;18.53;28.93;100183.39;1766518;81;21032;-44
2022/05/07 07:27:35;;;;;;;15.20;6.87;;;;;;;18.57;28.19;100183.38;1766782;80;21064;-44
2022/05/07 07:30:02;;;;;;;10.28;6.72;;;;;;;18.62;28.05;100185.15;1766556;81;20973;-44
2022/05/07 07:32:29;;;;;;;10.68;7.10;;;;;;;18.68;28.43;100190.25;1766770;81;20993;-44
2022/05/07 07:34:56;;;;;;;10.53;6.58;;;;;;;18.78;28.69;100189.45;1766702;81;21032;-44
2022/05/07 07:37:23;;;;;;;11.73;6.75;;;;;;;18.88;28.54;100187.29;1766597;81;21577;-44
2022/05/07 07:41:25;;;;;;;12.28;6.90;;;;;;;19.14;28.44;100189.57;1783502;79;22606;-43
2022/05/07 07:43:52;;;;;;;10.75;6.50;;;;;;;19.20;27.33;100185.24;1755580;81;21025;-43
2022/05/07 07:49:03;;;;;;;11.03;7.30;;;;;;;19.35;27.02;100184.02;1755754;81;21014;-43
2022/05/07 07:51:30;;;;;;;11.38;6.45;;;;;;;19.42;27.29;100182.59;1755662;81;21005;-43
2022/05/07 07:53:56;;;;;;;18.70;6.60;;;;;;;19.53;27.27;100173.75;1755986;81;20955;-43
2022/05/07 07:56:23;;;;;;;11.75;6.80;;;;;;;19.71;26.95;100179.75;1755590;81;21034;-43
2022/05/07 07:58:52;;;;;;;8.50;5.92;;;;;;;19.87;26.70;100177.31;1755574;81;21091;-43
2022/05/07 08:01:18;;;;;;;10.60;6.90;;;;;;;19.98;25.13;100173.13;1755395;81;20978;-43
2022/05/07 08:03:46;;;;;;;9.43;6.10;;;;;;;20.05;24.95;100175.22;1755537;81;21057;-43
2022/05/07 08:06:12;;;;;;;12.15;6.33;;;;;;;20.07;24.68;100179.74;1755376;81;20978;-43
2022/05/07 08:11:40;;;;;;;8.65;5.33;;;;;;;20.16;24.84;100177.91;1755499;81;21234;-43
2022/05/07 08:14:08;;;;;;;12.28;5.87;;;;;;;20.16;24.52;100169.06;1755296;81;21483;-43
2022/05/07 08:16:35;;;;;;;12.98;6.20;;;;;;;20.19;23.94;100168.23;1756280;81;20984;-43
2022/05/07 08:19:03;;;;;;;10.18;5.87;;;;;;;20.21;24.46;100171.38;1757176;81;21072;-43
2022/05/07 08:21:30;;;;;;;11.78;5.60;;;;;;;20.25;24.23;100177.64;1756994;81;21072;-43
2022/05/07 08:23:57;;;;;;;11.57;6.03;;;;;;;20.28;24.33;100168.56;1757356;81;21842;-43
2022/05/07 08:26:24;;;;;;;7.00;4.42;;;;;;;20.37;24.24;100171.69;1757202;81;21073;-43
2022/05/07 08:28:52;;;;;;;6.22;4.22;;;;;;;20.47;23.55;100169.25;1757399;81;20934;-43
2022/05/07 08:31:22;;;;;;;10.70;4.40;;;;;;;20.58;23.11;100170.70;1718430;83;21056;-43
2022/05/07 08:33:50;;;;;;;7.10;4.87;;;;;;;20.68;22.48;100177.31;1723845;83;21047;-43
2022/05/07 08:36:17;;;;;;;9.78;4.92;;;;;;;20.75;22.76;100163.48;1723465;83;21133;-43
2022/05/07 08:38:43;;;;;;;7.53;4.55;;;;;;;20.84;22.37;100166.54;1695116;83;20933;-43
2022/05/07 08:41:10;;;;;;;12.50;5.97;;;;;;;20.91;22.02;100174.75;1713862;83;21083;-43
2022/05/07 08:43:41;;;;;;;10.63;6.53;;;;;;;20.93;22.94;100173.73;1722159;83;21088;-43
2022/05/07 08:46:18;;;;;;;13.55;6.80;;;;;;;20.96;23.18;100174.27;1722093;83;21024;-43
2022/05/07 08:48:46;;;;;;;14.63;6.05;;;;;;;21.06;23.42;100158.22;1722390;83;21777;-43
2022/05/07 08:51:15;;;;;;;10.48;5.28;;;;;;;21.24;22.59;100162.98;1686746;85;20981;-43
2022/05/07 08:53:44;;;;;;;7.72;4.97;;;;;;;21.34;23.21;100167.41;1687069;85;21538;-43
2022/05/07 08:56:12;;;;;;;11.15;4.72;;;;;;;21.43;22.24;100169.06;1721812;83;21017;-43
2022/05/07 08:58:48;;;;;;;10.70;4.12;;;;;;;21.44;22.05;100146.59;1686931;85;21023;-43
2022/05/07 09:01:14;;;;;;;9.13;4.28;;;;;;;21.44;21.05;100178.32;1704775;83;21149;-43
2022/05/07 09:03:46;;;;;;;6.00;4.40;;;;;;;21.46;21.99;100164.88;1721731;83;21076;-43
2022/05/07 09:06:26;;;;;;;9.68;5.00;;;;;;;21.54;20.99;100164.20;1721665;83;21001;-44
2022/05/07 09:08:55;;;;;;;11.75;5.37;;;;;;;21.59;21.64;100157.60;1686768;85;21048;-44
2022/05/07 09:11:22;;;;;;;7.03;5.03;;;;;;;21.67;21.98;100152.19;1721852;82;21642;-44
2022/05/07 09:14:04;;;;;;;9.88;5.00;;;;;;;21.80;22.04;100158.52;1686762;85;21170;-44
2022/05/07 09:16:42;;;;;;;10.48;6.05;;;;;;;21.94;22.45;100156.36;1686540;85;21586;-44
2022/05/07 09:19:22;;;;;;;8.63;5.53;;;;;;;22.09;21.65;100171.52;1686870;85;21044;-44
2022/05/07 09:21:48;;;;;;;9.85;5.37;;;;;;;22.13;21.71;100149.36;1681054;85;21020;-44
2022/05/07 09:24:15;;;;;;;16.62;5.35;;;;;;;22.22;21.97;100150.23;1721662;83;21321;-44
2022/05/07 09:26:44;;;;;;;18.02;5.87;;;;;;;22.31;21.36;100170.61;1659426;85;21157;-44
2022/05/07 09:29:13;;;;;;;10.77;5.30;;;;;;;22.29;21.08;100152.87;1686779;85;21005;-44
2022/05/07 09:31:43;;;;;;;12.80;5.37;;;;;;;22.28;21.22;100151.30;1721714;83;21022;-44
2022/05/07 09:37:18;;;;;;;8.80;4.70;;;;;;;22.27;21.20;100144.99;1721815;83;21519;-44
2022/05/07 09:39:51;;;;;;;7.03;4.23;;;;;;;22.25;20.60;100154.91;1686565;85;23332;-44
2022/05/07 09:42:21;;;;;;;8.70;4.30;;;;;;;22.19;20.69;100146.92;1713993;83;20969;-44
2022/05/07 09:44:48;;;;;;;9.48;4.70;;;;;;;22.13;20.15;100153.51;1679612;85;21092;-44
2022/05/07 09:47:16;;;;;;;6.53;4.37;;;;;;;22.03;20.83;100152.47;1713893;83;21566;-44
2022/05/07 09:52:33;;;;;;;9.43;5.53;;;;;;;21.93;20.81;100143.75;1713891;83;21395;-44
2022/05/07 09:57:45;;;;;;;8.33;4.87;;;;;;;22.06;21.69;100135.09;1679278;85;21076;-44
2022/05/07 10:00:15;;;;;;;9.95;5.05;;;;;;;22.14;21.60;100130.22;1713793;83;21530;-44
2022/05/07 10:03:14;;;;;;;11.40;4.50;;;;;;;22.20;21.97;100130.53;1679465;85;21037;-44
2022/05/07 10:06:26;;;;;;;8.35;4.70;;;;;;;22.28;21.03;100131.97;1716704;82;23155;-44
2022/05/07 10:09:19;;;;;;;9.58;4.87;;;;;;;22.25;20.68;100134.98;1742974;81;21517;-44
2022/05/07 10:11:56;;;;;;;7.90;4.45;;;;;;;22.18;20.56;100132.33;1743681;82;20926;-44
2022/05/07 10:14:29;;;;;;;10.43;4.90;;;;;;;22.15;21.00;100118.58;1743692;82;21009;-44
2022/05/07 10:17:01;;;;;;;7.92;5.10;;;;;;;22.06;21.35;100126.80;1744009;82;21013;-44
2022/05/07 10:19:46;;;;;;;9.18;4.92;;;;;;;21.96;21.38;100131.89;1743538;82;21208;-44
2022/05/07 10:22:24;;;;;;;7.87;4.80;;;;;;;21.88;21.37;100129.00;1743389;81;20931;-44
2022/05/07 10:25:11;;;;;;;8.40;4.45;;;;;;;21.80;20.83;100135.84;1743430;82;20966;-44
2022/05/07 10:27:42;;;;;;;9.63;4.95;;;;;;;21.67;21.39;100126.57;1743679;81;20930;-44
2022/05/07 10:30:21;;;;;;;10.10;4.55;;;;;;;21.44;21.53;100132.02;1743844;82;21069;-44
2022/05/07 10:33:03;;;;;;;7.87;4.60;;;;;;;21.25;21.36;100128.67;1743740;82;23123;-44
2022/05/07 10:35:55;;;;;;;9.20;4.55;;;;;;;21.12;21.99;100122.11;1743315;82;21538;-44
2022/05/07 10:38:28;;;;;;;9.53;5.00;;;;;;;21.09;21.66;100120.19;1741798;81;21038;-44
2022/05/07 10:41:05;;;;;;;7.85;5.20;;;;;;;21.02;22.25;100123.61;1746760;81;21571;-44
2022/05/07 10:43:35;;;;;;;10.75;4.92;;;;;;;20.97;22.23;100119.92;1751384;82;21515;-44
2022/05/07 10:46:07;;;;;;;8.85;4.60;;;;;;;20.89;22.32;100120.61;1751534;82;21108;-43
2022/05/07 10:49:01;;;;;;;7.83;5.08;;;;;;;20.85;22.64;100111.61;1751567;82;21333;-43
2022/05/07 10:51:53;;;;;;;8.05;4.50;;;;;;;20.85;22.24;100114.95;1751441;81;21013;-43
2022/05/07 10:54:27;;;;;;;6.53;4.83;;;;;;;20.80;22.50;100114.81;1736383;82;21008;-43
2022/05/07 10:56:57;;;;;;;7.30;4.60;;;;;;;20.79;22.59;100109.11;1751538;82;21016;-43
2022/05/07 10:59:26;;;;;;;7.53;4.42;;;;;;;20.71;22.64;100112.55;1751503;82;21227;-43
2022/05/07 11:02:09;;;;;;;8.67;4.60;;;;;;;20.62;22.84;100114.22;1751696;82;20983;-43
2022/05/07 11:04:43;;;;;;;10.23;4.65;;;;;;;20.51;23.11;100112.94;1751286;82;20969;-43
2022/05/07 11:07:10;;;;;;;9.83;5.20;;;;;;;20.38;23.85;100107.13;1751275;82;20993;-43
2022/05/07 11:09:41;;;;;;;9.10;5.00;;;;;;;20.31;23.78;100101.70;1751374;82;21056;-43
2022/05/07 11:12:08;;;;;;;8.18;5.05;;;;;;;20.26;23.85;100106.24;1750836;81;22191;-43
2022/05/07 11:14:35;;;;;;;13.48;6.83;;;;;;;20.26;23.61;100106.84;1750758;81;21001;-43
2022/05/07 11:17:04;;;;;;;15.78;6.00;;;;;;;20.24;24.03;100107.83;1751476;82;21001;-43
2022/05/07 11:19:34;;;;;;;6.17;4.37;;;;;;;20.20;24.11;100119.47;1751774;82;21033;-43
2022/05/07 11:22:04;;;;;;;13.55;5.10;;;;;;;20.01;23.92;100118.04;1751338;81;21034;-43
2022/05/07 11:24:32;;;;;;;8.43;5.17;;;;;;;19.81;25.24;100110.91;1751777;82;21086;-43
2022/05/07 11:27:10;;;;;;;5.87;4.42;;;;;;;19.66;24.21;100118.27;1751542;82;20938;-43
2022/05/07 11:29:36;;;;;;;12.78;4.87;;;;;;;19.58;24.70;100124.41;1751469;82;21008;-43
2022/05/07 11:32:08;;;;;;;6.53;4.45;;;;;;;19.51;25.48;100122.47;1751450;82;21339;-43
2022/05/07 11:34:42;;;;;;;11.55;4.95;;;;;;;19.47;26.06;100106.59;1751832;82;21476;-43
2022/05/07 11:37:15;;;;;;;7.55;4.55;;;;;;;19.43;25.28;100114.05;1751321;82;21727;-43
2022/05/07 11:39:54;;;;;;;8.23;5.03;;;;;;;19.42;25.24;100098.73;1751497;82;20930;-43
2022/05/07 11:42:47;;;;;;;9.85;4.58;;;;;;;19.47;25.14;100102.46;1744267;81;21006;-43
2022/05/07 11:45:33;;;;;;;8.23;4.37;;;;;;;19.55;25.24;100093.59;1743671;82;21009;-43
2022/05/07 11:47:59;;;;;;;11.15;5.15;;;;;;;19.66;25.37;100093.51;1742388;81;21025;-43
2022/05/07 11:50:41;;;;;;;7.87;4.50;;;;;;;19.76;24.83;100079.69;1743528;82;21127;-43
2022/05/07 11:53:13;;;;;;;7.55;4.60;;;;;;;19.88;25.65;100077.06;1742433;81;21057;-43
2022/05/07 11:55:40;;;;;;;9.93;5.33;;;;;;;20.04;25.30;100069.67;1743610;81;21021;-43
2022/05/07 11:58:22;;;;;;;8.33;4.83;;;;;;;20.19;25.72;100069.12;1743280;82;20995;-43
2022/05/07 12:00:53;;;;;;;8.30;4.60;;;;;;;20.36;25.60;100068.22;1734638;82;21030;-43
2022/05/07 12:03:27;;;;;;;7.70;4.73;;;;;;;20.55;25.41;100061.34;1738804;82;21130;-43